createdAt,value
2018-10-06T00:00:27.337Z,100402.97
2018-10-06T00:02:58.777Z,100404.00
2018-10-06T00:05:30.264Z,100401.28
2018-10-06T00:08:01.658Z,100397.54
2018-10-06T00:10:32.986Z,100390.75
2018-10-06T00:13:05.212Z,100387.71
2018-10-06T00:15:36.752Z,100392.81
2018-10-06T00:18:08.200Z,100392.63
2018-10-06T00:20:39.698Z,100392.81
2018-10-06T00:23:11.211Z,100383.47
2018-10-06T00:25:42.635Z,100392.45
2018-10-06T00:28:13.995Z,100392.28
2018-10-06T00:30:45.495Z,100395.86
2018-10-06T00:33:16.822Z,100388.23
2018-10-06T00:35:48.308Z,100389.41
2018-10-06T00:38:19.760Z,100396.70
2018-10-06T00:40:51.199Z,100391.63
2018-10-06T00:43:22.685Z,100386.69
2018-10-06T00:45:54.195Z,100376.70
2018-10-06T00:48:25.682Z,100368.56
2018-10-06T00:50:57.207Z,100373.13
2018-10-06T00:53:28.703Z,100371.95
2018-10-06T00:56:00.069Z,100371.95
2018-10-06T00:58:31.655Z,100371.11
2018-10-06T01:01:03.196Z,100365.33
2018-10-06T01:03:34.691Z,100367.20
2018-10-06T01:06:05.987Z,100358.21
2018-10-06T01:08:37.540Z,100362.80
2018-10-06T01:11:08.862Z,100356.02
2018-10-06T01:13:40.420Z,100350.59
2018-10-06T01:16:11.741Z,100354.66
2018-10-06T01:18:43.366Z,100350.23
2018-10-06T01:21:14.743Z,100347.52
2018-10-06T01:23:46.205Z,100339.73
2018-10-06T01:26:17.658Z,100334.98
2018-10-06T01:28:49.203Z,100333.61
2018-10-06T01:31:20.848Z,100332.44
2018-10-06T01:33:52.364Z,100331.92
2018-10-06T01:36:23.753Z,100325.83
2018-10-06T01:38:54.977Z,100327.52
2018-10-06T01:41:25.534Z,100323.77
2018-10-06T01:43:57.312Z,100318.53
2018-10-06T01:46:28.707Z,100319.54
2018-10-06T01:49:00.076Z,100317.34
2018-10-06T01:51:31.660Z,100318.70
2018-10-06T01:54:03.214Z,100312.75
2018-10-06T01:56:34.756Z,100314.95
2018-10-06T01:59:06.210Z,100308.17
2018-10-06T02:01:37.765Z,100300.87
2018-10-06T02:04:09.228Z,100295.44
2018-10-06T02:06:40.708Z,100296.98
2018-10-06T02:09:12.278Z,100290.20
2018-10-06T02:11:43.684Z,100285.78
2018-10-06T02:14:15.203Z,100278.99
2018-10-06T02:16:46.730Z,100276.28
2018-10-06T02:19:18.193Z,100276.12
2018-10-06T02:21:50.259Z,100273.92
2018-10-06T02:24:21.736Z,100268.14
2018-10-06T02:26:53.303Z,100266.11
2018-10-06T02:29:24.723Z,100264.07
2018-10-06T02:31:56.270Z,100265.42
2018-10-06T02:34:27.740Z,100248.82
2018-10-06T02:36:59.331Z,100254.57
2018-10-06T02:39:30.711Z,100251.86
2018-10-06T02:42:02.309Z,100248.98
2018-10-06T02:44:33.701Z,100254.57
2018-10-06T02:47:04.999Z,100245.59
2018-10-06T02:49:36.510Z,100251.86
2018-10-06T02:52:07.898Z,100249.14
2018-10-06T02:54:39.324Z,100248.47
2018-10-06T02:57:10.747Z,100245.23
2018-10-06T02:59:42.208Z,100239.49
2018-10-06T03:02:13.881Z,100239.14
2018-10-06T03:04:45.531Z,100231.19
2018-10-06T03:07:16.839Z,100224.73
2018-10-06T03:09:48.199Z,100219.63
2018-10-06T03:12:19.653Z,100219.30
2018-10-06T03:14:51.212Z,100218.62
2018-10-06T03:17:22.749Z,100211.48
2018-10-06T03:19:53.867Z,100212.00
2018-10-06T03:22:25.298Z,100211.16
2018-10-06T03:24:56.694Z,100212.19
2018-10-06T03:27:28.202Z,100214.39
2018-10-06T03:29:59.711Z,100204.89
2018-10-06T03:32:31.307Z,100210.64
2018-10-06T03:35:02.691Z,100208.80
2018-10-06T03:37:34.405Z,100204.53
2018-10-06T03:40:05.856Z,100205.73
2018-10-06T03:42:36.772Z,100197.59
2018-10-06T03:45:08.197Z,100195.04
2018-10-06T03:47:39.777Z,100192.33
2018-10-06T03:50:10.769Z,100183.70
2018-10-06T03:52:41.558Z,100181.98
2018-10-06T03:55:12.639Z,100187.77
2018-10-06T03:57:43.613Z,100190.97
2018-10-06T04:00:14.690Z,100182.83
2018-10-06T04:02:45.723Z,100178.95
2018-10-06T04:05:16.851Z,100179.47
2018-10-06T04:07:47.974Z,100175.05
2018-10-06T04:10:18.343Z,100171.13
2018-10-06T04:12:49.552Z,100174.88
2018-10-06T04:15:20.577Z,100183.19
2018-10-06T04:17:51.852Z,100171.66
2018-10-06T04:20:22.814Z,100165.70
2018-10-06T04:22:53.877Z,100164.03
2018-10-06T04:25:24.793Z,100157.24
2018-10-06T04:27:55.736Z,100162.99
2018-10-06T04:30:26.709Z,100162.16
2018-10-06T04:32:57.673Z,100149.98
2018-10-06T04:35:28.652Z,100161.12
2018-10-06T04:37:59.630Z,100167.91
2018-10-06T04:40:30.637Z,100168.77
2018-10-06T04:43:01.648Z,100166.55
2018-10-06T04:45:32.610Z,100161.31
2018-10-06T04:48:03.583Z,100161.83
2018-10-06T04:50:34.594Z,100155.53
2018-10-06T04:53:05.703Z,100154.69
2018-10-06T04:55:36.706Z,100144.52
2018-10-06T04:58:07.653Z,100145.87
2018-10-06T05:00:38.599Z,100153.17
2018-10-06T05:03:09.639Z,100155.53
2018-10-06T05:05:40.642Z,100154.53
2018-10-06T05:08:11.690Z,100156.89
2018-10-06T05:10:42.632Z,100160.12
2018-10-06T05:13:13.668Z,100160.63
2018-10-06T05:15:44.643Z,100151.30
2018-10-06T05:18:15.662Z,100157.24
2018-10-06T05:20:46.657Z,100155.89
2018-10-06T05:23:17.682Z,100158.95
2018-10-06T05:25:48.689Z,100161.67
2018-10-06T05:28:19.649Z,100159.28
2018-10-06T05:30:50.607Z,100165.55
2018-10-06T05:33:21.591Z,100161.16
2018-10-06T05:35:52.566Z,100169.45
2018-10-06T05:38:23.568Z,100170.81
2018-10-06T05:40:54.593Z,100170.13
2018-10-06T05:43:25.590Z,100171.33
2018-10-06T05:45:57.671Z,100166.22
2018-10-06T05:48:28.667Z,100171.13
2018-10-06T05:50:59.675Z,100165.38
2018-10-06T05:53:30.640Z,100159.95
2018-10-06T05:56:01.609Z,100160.28
2018-10-06T05:58:32.599Z,100157.56
2018-10-06T06:01:03.602Z,100156.89
2018-10-06T06:03:34.630Z,100154.17
2018-10-06T06:06:05.585Z,100154.66
2018-10-06T06:08:36.665Z,100160.08
2018-10-06T06:11:07.624Z,100166.87
2018-10-06T06:13:38.606Z,100164.16
2018-10-06T06:16:09.808Z,100163.67
2018-10-06T06:18:40.790Z,100161.80
2018-10-06T06:21:11.774Z,100156.56
2018-10-06T06:23:42.843Z,100160.08
2018-10-06T06:26:13.743Z,100153.33
2018-10-06T06:28:44.459Z,100160.44
2018-10-06T06:31:15.656Z,100163.99
2018-10-06T06:33:46.584Z,100162.95
2018-10-06T06:36:17.625Z,100154.66
2018-10-06T06:38:48.638Z,100158.41
2018-10-06T06:41:19.625Z,100152.78
2018-10-06T06:43:50.693Z,100152.94
2018-10-06T06:46:21.595Z,100145.99
2018-10-06T06:48:52.619Z,100139.20
2018-10-06T06:51:23.577Z,100139.53
2018-10-06T06:53:54.589Z,100143.92
2018-10-06T06:56:25.643Z,100139.69
2018-10-06T06:58:56.532Z,100134.78
2018-10-06T07:01:27.531Z,100136.45
2018-10-06T07:03:58.577Z,100135.77
2018-10-06T07:09:12.549Z,100137.45
2018-10-06T07:11:43.598Z,100131.54
2018-10-06T07:14:14.637Z,100136.77
2018-10-06T07:16:46.694Z,100136.77
2018-10-06T07:19:17.984Z,100135.41
2018-10-06T07:22:00.720Z,100134.73
2018-10-06T07:24:32.325Z,100130.82
2018-10-06T07:27:03.827Z,100134.05
2018-10-06T07:29:35.364Z,100141.69
2018-10-06T07:32:06.885Z,100135.41
2018-10-06T07:34:38.552Z,100141.69
2018-10-06T07:37:10.200Z,100137.12
2018-10-06T07:39:41.731Z,100132.70
2018-10-06T07:42:13.317Z,100127.63
2018-10-06T07:44:44.839Z,100132.34
2018-10-06T07:47:16.344Z,100125.91
2018-10-06T07:49:47.787Z,100120.80
2018-10-06T07:52:18.821Z,100127.59
2018-10-06T07:54:50.387Z,100123.67
2018-10-06T07:57:21.870Z,100121.98
2018-10-06T07:59:53.350Z,100124.70
2018-10-06T08:02:24.891Z,100118.75
2018-10-06T08:04:56.522Z,100118.59
2018-10-06T08:07:28.021Z,100121.46
2018-10-06T08:09:59.646Z,100119.06
2018-10-06T08:12:31.004Z,100115.83
2018-10-06T08:15:02.540Z,100114.31
2018-10-06T08:17:34.205Z,100112.23
2018-10-06T08:20:05.748Z,100111.40
2018-10-06T08:22:36.822Z,100106.16
2018-10-06T08:25:08.430Z,100111.40
2018-10-06T08:27:39.969Z,100107.00
2018-10-06T08:30:10.578Z,100109.52
2018-10-06T08:32:42.225Z,100101.89
2018-10-06T08:35:13.736Z,100101.73
2018-10-06T08:37:45.313Z,100103.24
2018-10-06T08:40:16.789Z,100099.84
2018-10-06T08:42:48.440Z,100098.97
2018-10-06T08:45:19.997Z,100098.33
2018-10-06T08:47:51.563Z,100098.66
2018-10-06T08:50:22.994Z,100098.97
2018-10-06T08:52:54.640Z,100103.55
2018-10-06T08:55:26.219Z,100091.33
2018-10-06T08:57:57.736Z,100093.36
2018-10-06T09:00:29.224Z,100085.70
2018-10-06T09:03:00.670Z,100095.52
2018-10-06T09:05:32.198Z,100098.73
2018-10-06T09:08:03.761Z,100091.22
2018-10-06T09:10:35.384Z,100096.37
2018-10-06T09:13:06.929Z,100095.45
2018-10-06T09:15:37.578Z,100091.63
2018-10-06T09:18:09.232Z,100088.36
2018-10-06T09:20:40.739Z,100087.70
2018-10-06T09:23:12.404Z,100088.05
2018-10-06T09:25:43.799Z,100088.88
2018-10-06T09:28:14.834Z,100085.33
2018-10-06T09:30:46.412Z,100083.99
2018-10-06T09:33:18.215Z,100077.55
2018-10-06T09:35:49.729Z,100076.19
2018-10-06T09:38:21.318Z,100065.86
2018-10-06T09:40:52.730Z,100077.55
2018-10-06T09:43:24.372Z,100067.83
2018-10-06T09:45:55.770Z,100068.88
2018-10-06T09:48:27.213Z,100060.58
2018-10-06T09:50:58.691Z,100059.59
2018-10-06T09:53:29.692Z,100054.79
2018-10-06T09:56:00.833Z,100052.07
2018-10-06T09:58:31.880Z,100047.67
2018-10-06T10:01:07.957Z,100046.32
2018-10-06T10:03:43.408Z,100044.64
2018-10-06T10:06:14.646Z,100047.36
2018-10-06T10:08:45.797Z,100041.26
2018-10-06T10:11:16.751Z,100037.50
2018-10-06T10:13:47.775Z,100039.38
2018-10-06T10:16:19.220Z,100041.26
2018-10-06T10:18:50.774Z,100037.88
2018-10-06T10:21:22.204Z,100035.82
2018-10-06T10:23:53.911Z,100038.39
2018-10-06T10:26:25.445Z,100028.36
2018-10-06T10:28:57.379Z,100021.92
2018-10-06T10:31:28.695Z,100021.05
2018-10-06T10:34:00.204Z,100012.89
2018-10-06T10:36:31.778Z,100005.27
2018-10-06T10:39:03.320Z,99992.72
2018-10-06T10:41:35.083Z,100007.06
2018-10-06T10:44:06.737Z,99998.38
2018-10-06T10:46:37.988Z,100000.44
2018-10-06T10:49:08.562Z,99990.09
2018-10-06T10:51:39.854Z,99975.14
2018-10-06T10:54:11.273Z,99974.97
2018-10-06T10:56:42.401Z,99968.84
2018-10-06T10:59:13.794Z,99962.05
2018-10-06T11:01:45.204Z,99951.88
2018-10-06T11:04:16.688Z,99958.95
2018-10-06T11:06:48.206Z,99956.55
2018-10-06T11:09:19.658Z,99946.52
2018-10-06T11:11:50.899Z,99947.70
2018-10-06T11:14:22.347Z,99941.95
2018-10-06T11:16:53.677Z,99939.55
2018-10-06T11:19:25.218Z,99931.39
2018-10-06T11:21:56.662Z,99934.94
2018-10-06T11:24:27.979Z,99935.78
2018-10-06T11:26:58.546Z,99927.63
2018-10-06T11:29:29.872Z,99924.42
2018-10-06T11:32:01.219Z,99916.75
2018-10-06T11:34:32.747Z,99915.46
2018-10-06T11:37:04.043Z,99909.05
2018-10-06T11:39:35.504Z,99906.19
2018-10-06T11:42:06.811Z,99906.19
2018-10-06T11:44:38.310Z,99902.95
2018-10-06T11:47:10.465Z,99896.09
2018-10-06T11:49:41.765Z,99893.02
2018-10-06T11:52:13.316Z,99896.79
2018-10-06T11:54:44.698Z,99888.03
2018-10-06T11:57:16.304Z,99886.33
2018-10-06T11:59:47.774Z,99883.81
2018-10-06T12:02:18.999Z,99886.67
2018-10-06T12:04:50.581Z,99880.50
2018-10-06T12:07:21.831Z,99873.39
2018-10-06T12:09:53.312Z,99870.67
2018-10-06T12:12:25.720Z,99871.72
2018-10-06T12:14:57.363Z,99873.08
2018-10-06T12:17:28.719Z,99863.42
2018-10-06T12:20:00.318Z,99864.13
2018-10-06T12:22:31.759Z,99860.23
2018-10-06T12:25:03.308Z,99853.78
2018-10-06T12:27:34.732Z,99845.23
2018-10-06T12:30:06.259Z,99841.86
2018-10-06T12:32:37.663Z,99847.05
2018-10-06T12:35:09.248Z,99841.95
2018-10-06T12:37:40.697Z,99840.25
2018-10-06T12:40:12.521Z,99843.80
2018-10-06T12:42:44.217Z,99834.63
2018-10-06T12:45:15.701Z,99837.48
2018-10-06T12:47:47.034Z,99833.20
2018-10-06T12:50:18.381Z,99828.63
2018-10-06T12:52:49.772Z,99824.41
2018-10-06T12:55:21.412Z,99824.55
2018-10-06T12:57:52.770Z,99819.98
2018-10-06T13:00:24.237Z,99821.42
2018-10-06T13:02:55.719Z,99821.29
2018-10-06T13:05:26.995Z,99815.38
2018-10-06T13:07:57.613Z,99809.17
2018-10-06T13:10:29.073Z,99809.49
2018-10-06T13:13:00.639Z,99805.23
2018-10-06T13:15:31.910Z,99795.12
2018-10-06T13:18:03.304Z,99790.87
2018-10-06T13:20:34.782Z,99796.61
2018-10-06T13:23:06.284Z,99793.58
2018-10-06T13:25:37.696Z,99789.64
2018-10-06T13:28:08.907Z,99788.41
2018-10-06T13:30:40.400Z,99781.93
2018-10-06T13:33:11.864Z,99782.97
2018-10-06T13:35:43.214Z,99789.25
2018-10-06T13:38:14.775Z,99775.20
2018-10-06T13:40:46.302Z,99781.34
2018-10-06T13:43:17.692Z,99776.09
2018-10-06T13:45:49.217Z,99771.56
2018-10-06T13:48:20.684Z,99768.54
2018-10-06T13:50:51.917Z,99768.54
2018-10-06T13:53:23.394Z,99766.66
2018-10-06T13:55:54.853Z,99762.89
2018-10-06T13:58:25.810Z,99757.98
2018-10-06T14:00:57.229Z,99741.27
2018-10-06T14:03:28.673Z,99749.37
2018-10-06T14:06:00.203Z,99750.73
2018-10-06T14:08:31.741Z,99753.45
2018-10-06T14:11:02.787Z,99751.58
2018-10-06T14:13:33.762Z,99751.05
2018-10-06T14:16:04.796Z,99752.72
2018-10-06T14:18:36.200Z,99742.59
2018-10-06T14:21:07.978Z,99750.14
2018-10-06T14:23:38.542Z,99746.41
2018-10-06T14:26:10.660Z,99744.34
2018-10-06T14:28:42.234Z,99745.44
2018-10-06T14:31:13.990Z,99745.17
2018-10-06T14:33:45.356Z,99739.03
2018-10-06T14:36:16.734Z,99740.70
2018-10-06T14:38:47.654Z,99740.70
2018-10-06T14:41:19.328Z,99730.66
2018-10-06T14:43:50.720Z,99728.28
2018-10-06T14:46:22.211Z,99723.86
2018-10-06T14:48:53.691Z,99723.68
2018-10-06T14:51:25.218Z,99718.55
2018-10-06T14:53:56.723Z,99717.59
2018-10-06T14:56:28.305Z,99710.22
2018-10-06T14:58:59.699Z,99716.23
2018-10-06T15:01:31.198Z,99710.36
2018-10-06T15:04:02.667Z,99708.34
2018-10-06T15:06:34.214Z,99714.17
2018-10-06T15:09:07.067Z,99711.81
2018-10-06T15:11:38.644Z,99712.86
2018-10-06T15:14:09.888Z,99709.84
2018-10-06T15:16:41.431Z,99707.30
2018-10-06T15:19:12.792Z,99710.54
2018-10-06T15:21:43.952Z,99704.05
2018-10-06T15:24:14.583Z,99707.30
2018-10-06T15:26:46.008Z,99698.48
2018-10-06T15:29:17.503Z,99700.19
2018-10-06T15:31:48.825Z,99697.97
2018-10-06T15:34:20.198Z,99698.31
2018-10-06T15:36:51.795Z,99696.11
2018-10-06T15:39:22.762Z,99699.84
2018-10-06T15:41:53.706Z,99690.86
2018-10-06T15:44:25.225Z,99694.10
2018-10-06T15:46:56.796Z,99693.58
2018-10-06T15:49:28.196Z,99689.19
2018-10-06T15:51:59.720Z,99694.28
2018-10-06T15:54:30.986Z,99690.91
2018-10-06T15:57:01.538Z,99689.55
2018-10-06T15:59:32.835Z,99693.31
2018-10-06T16:02:04.195Z,99691.13
2018-10-06T16:04:35.615Z,99687.56
2018-10-06T16:07:07.656Z,99690.47
2018-10-06T16:09:39.214Z,99687.09
2018-10-06T16:12:10.742Z,99688.97
2018-10-06T16:14:42.421Z,99684.90
2018-10-06T16:17:13.792Z,99688.14
2018-10-06T16:19:45.307Z,99689.81
2018-10-06T16:22:17.396Z,99681.53
2018-10-06T16:24:48.754Z,99681.22
2018-10-06T16:27:20.540Z,99686.65
2018-10-06T16:29:52.293Z,99686.00
2018-10-06T16:32:23.788Z,99687.70
2018-10-06T16:34:55.575Z,99685.86
2018-10-06T16:37:26.826Z,99690.41
2018-10-06T16:39:58.305Z,99690.72
2018-10-06T16:42:29.763Z,99697.70
2018-10-06T16:45:01.729Z,99699.06
2018-10-06T16:47:33.206Z,99692.00
2018-10-06T16:50:04.749Z,99703.66
2018-10-06T16:52:36.318Z,99701.28
2018-10-06T16:55:07.880Z,99702.51
2018-10-06T16:57:39.655Z,99700.28
2018-10-06T17:00:11.208Z,99701.33
2018-10-06T17:02:42.765Z,99700.81
2018-10-06T17:05:13.971Z,99687.48
2018-10-06T17:07:44.607Z,99704.05
2018-10-06T17:10:16.226Z,99704.05
2018-10-06T17:12:47.693Z,99697.44
2018-10-06T17:15:18.850Z,99706.94
2018-10-06T17:17:50.299Z,99703.73
2018-10-06T17:20:21.697Z,99709.17
2018-10-06T17:22:53.208Z,99709.66
2018-10-06T17:25:24.974Z,99708.30
2018-10-06T17:27:55.575Z,99710.18
2018-10-06T17:30:26.964Z,99711.54
2018-10-06T17:32:57.582Z,99710.39
2018-10-06T17:36:28.366Z,99705.14
2018-10-06T17:38:59.629Z,99699.70
2018-10-06T17:41:31.701Z,99703.60
2018-10-06T17:44:03.372Z,99703.08
2018-10-06T17:46:34.740Z,99709.03
2018-10-06T17:49:06.284Z,99694.13
2018-10-06T17:51:37.734Z,99697.30
2018-10-06T17:54:09.271Z,99701.38
2018-10-06T17:56:40.759Z,99696.98
2018-10-06T17:59:11.990Z,99693.44
2018-10-06T18:01:43.507Z,99700.23
2018-10-06T18:05:31.324Z,99705.31
2018-10-06T18:08:02.548Z,99703.47
2018-10-06T18:10:33.612Z,99701.77
2018-10-06T18:13:04.642Z,99703.13
2018-10-06T18:15:35.704Z,99704.83
2018-10-06T18:18:07.425Z,99704.48
2018-10-06T18:20:38.709Z,99706.36
2018-10-06T18:23:09.674Z,99706.19
2018-10-06T18:25:40.668Z,99707.55
2018-10-06T18:28:11.670Z,99708.90
2018-10-06T18:30:42.662Z,99702.59
2018-10-06T18:33:13.658Z,99704.83
2018-10-06T18:35:44.640Z,99705.66
2018-10-06T18:38:15.641Z,99710.57
2018-10-06T18:40:47.194Z,99713.81
2018-10-06T18:43:18.713Z,99719.77
2018-10-06T18:45:49.954Z,99722.48
2018-10-06T18:48:20.551Z,99718.90
2018-10-06T18:50:51.891Z,99717.55
2018-10-06T18:53:23.673Z,99717.55
2018-10-06T18:55:55.339Z,99716.19
2018-10-06T18:58:28.214Z,99713.16
2018-10-06T19:00:59.806Z,99717.55
2018-10-06T19:03:31.108Z,99712.45
2018-10-06T19:06:02.321Z,99716.19
2018-10-06T19:08:33.720Z,99722.14
2018-10-06T19:11:05.192Z,99720.78
2018-10-06T19:13:36.673Z,99718.77
2018-10-06T19:16:08.228Z,99713.67
2018-10-06T19:18:39.738Z,99717.23
2018-10-06T19:21:11.258Z,99720.26
2018-10-06T19:23:42.803Z,99721.62
2018-10-06T19:26:14.317Z,99729.27
2018-10-06T19:28:45.722Z,99728.93
2018-10-06T19:31:17.189Z,99725.55
2018-10-06T19:33:48.623Z,99733.34
2018-10-06T19:36:19.997Z,99730.29
2018-10-06T19:38:51.361Z,99735.72
2018-10-06T19:41:22.732Z,99730.63
2018-10-06T19:43:54.188Z,99734.50
2018-10-06T19:46:25.688Z,99738.78
2018-10-06T19:48:57.200Z,99745.89
2018-10-06T19:51:28.866Z,99741.50
2018-10-06T19:54:00.303Z,99742.65
2018-10-06T19:56:31.688Z,99749.96
2018-10-06T19:59:10.540Z,99749.96
2018-10-06T20:01:41.895Z,99746.41
2018-10-06T20:04:13.394Z,99749.13
2018-10-06T20:06:45.220Z,99750.48
2018-10-06T20:09:16.741Z,99744.53
2018-10-06T20:11:48.204Z,99747.77
2018-10-06T20:14:19.692Z,99752.36
2018-10-06T20:16:51.576Z,99752.02
2018-10-06T20:19:22.967Z,99752.02
2018-10-06T20:21:53.506Z,99755.58
2018-10-06T20:24:24.807Z,99748.47
2018-10-06T20:26:56.227Z,99746.94
2018-10-06T20:29:27.642Z,99750.48
2018-10-06T20:31:59.203Z,99749.96
2018-10-06T20:34:30.678Z,99746.94
2018-10-06T20:37:02.385Z,99748.30
2018-10-06T20:39:33.714Z,99751.84
2018-10-06T20:42:04.980Z,99753.20
2018-10-06T20:44:36.520Z,99747.77
2018-10-06T20:47:08.214Z,99753.38
2018-10-06T20:49:41.744Z,99758.30
2018-10-06T20:52:12.761Z,99752.02
2018-10-06T20:54:43.798Z,99753.20
2018-10-06T20:57:15.200Z,99746.66
2018-10-06T20:59:46.607Z,99755.40
2018-10-06T21:02:18.659Z,99760.31
2018-10-06T21:04:49.902Z,99757.07
2018-10-06T21:07:21.712Z,99758.95
2018-10-06T21:09:53.308Z,99761.14
2018-10-06T21:12:26.490Z,99761.35
2018-10-06T21:14:58.206Z,99766.58
2018-10-06T21:17:29.685Z,99765.22
2018-10-06T21:20:02.479Z,99758.95
2018-10-06T21:22:34.191Z,99763.23
2018-10-06T21:25:05.701Z,99765.42
2018-10-06T21:27:38.727Z,99765.95
2018-10-06T21:30:10.212Z,99768.98
2018-10-06T21:32:41.805Z,99768.98
2018-10-06T21:35:13.321Z,99768.98
2018-10-06T21:37:44.712Z,99768.98
2018-10-06T21:40:16.203Z,99764.59
2018-10-06T21:42:47.652Z,99761.88
2018-10-06T21:45:18.932Z,99765.42
2018-10-06T21:47:50.339Z,99766.13
2018-10-06T21:50:21.791Z,99761.53
2018-10-06T21:52:52.805Z,99763.93
2018-10-06T21:55:23.739Z,99761.53
2018-10-06T21:57:55.633Z,99760.70
2018-10-06T22:00:27.204Z,99759.86
2018-10-06T22:03:01.193Z,99758.81
2018-10-06T22:05:32.621Z,99754.95
2018-10-06T22:08:03.867Z,99757.45
2018-10-06T22:10:35.303Z,99758.50
2018-10-06T22:13:07.713Z,99759.65
2018-10-06T22:15:39.208Z,99744.96
2018-10-06T22:18:10.695Z,99755.78
2018-10-06T22:20:41.954Z,99753.06
2018-10-06T22:23:12.557Z,99758.50
2018-10-06T22:25:43.988Z,99756.09
2018-10-06T22:28:15.355Z,99749.30
2018-10-06T22:30:46.719Z,99748.99
2018-10-06T22:33:18.281Z,99746.27
2018-10-06T22:35:49.632Z,99746.59
2018-10-06T22:38:20.900Z,99746.27
2018-10-06T22:40:52.386Z,99747.63
2018-10-06T22:43:24.667Z,99744.08
2018-10-06T22:45:55.968Z,99747.63
2018-10-06T22:48:27.373Z,99746.27
2018-10-06T22:50:59.255Z,99747.95
2018-10-06T22:53:30.708Z,99743.56
2018-10-06T22:56:02.187Z,99747.95
2018-10-06T22:58:33.711Z,99743.88
2018-10-06T23:01:05.192Z,99744.08
2018-10-06T23:03:36.634Z,99732.34
2018-10-06T23:06:08.836Z,99730.50
2018-10-06T23:08:40.195Z,99739.80
2018-10-06T23:11:12.725Z,99732.48
2018-10-06T23:13:44.208Z,99721.03
2018-10-06T23:16:15.652Z,99732.17
2018-10-06T23:18:48.973Z,99727.05
2018-10-06T23:21:19.589Z,99727.26
2018-10-06T23:23:51.375Z,99726.56
2018-10-06T23:26:22.706Z,99731.33
2018-10-06T23:28:54.192Z,99726.73
2018-10-06T23:31:25.662Z,99726.73
2018-10-06T23:33:57.201Z,99719.95
2018-10-06T23:36:28.732Z,99716.39
2018-10-06T23:39:00.384Z,99714.51
2018-10-06T23:41:32.515Z,99713.67
2018-10-06T23:44:03.850Z,99705.53
2018-10-06T23:46:35.262Z,99707.20
2018-10-06T23:49:06.730Z,99705.31
2018-10-06T23:51:38.235Z,99708.03
2018-10-06T23:54:09.721Z,99711.27
2018-10-06T23:56:41.211Z,99707.55
2018-10-06T23:59:12.792Z,99706.67
